createdAt,value
2023-02-17T00:00:54.744Z,6.94
2023-02-17T00:03:22.782Z,6.76
2023-02-17T00:05:51.141Z,6.92
2023-02-17T00:08:18.859Z,6.84
2023-02-17T00:10:56.577Z,7.00
2023-02-17T00:13:24.110Z,7.01
2023-02-17T00:15:51.649Z,6.77
2023-02-17T00:18:19.295Z,7.02
2023-02-17T00:20:46.772Z,7.05
2023-02-17T00:23:14.371Z,7.05
2023-02-17T00:25:42.249Z,7.01
2023-02-17T00:28:11.121Z,7.03
2023-02-17T00:30:39.341Z,7.01
2023-02-17T00:33:07.288Z,6.61
2023-02-17T00:35:34.807Z,6.75
2023-02-17T00:38:02.319Z,6.95
2023-02-17T00:40:30.034Z,6.67
2023-02-17T00:42:58.103Z,6.51
2023-02-17T00:45:26.869Z,6.92
2023-02-17T00:47:54.307Z,6.95
2023-02-17T00:50:21.746Z,6.92
2023-02-17T00:52:49.203Z,6.75
2023-02-17T00:55:16.698Z,6.95
2023-02-17T00:57:44.161Z,6.94
2023-02-17T01:00:12.746Z,6.94
2023-02-17T01:02:41.587Z,6.79
2023-02-17T01:05:09.047Z,7.01
2023-02-17T01:07:37.204Z,6.83
2023-02-17T01:10:05.241Z,6.92
2023-02-17T01:12:32.962Z,7.01
2023-02-17T01:15:00.477Z,7.03
2023-02-17T01:17:28.567Z,7.01
2023-02-17T01:19:58.029Z,6.86
2023-02-17T01:22:25.773Z,6.95
2023-02-17T01:24:53.231Z,7.03
2023-02-17T01:27:20.687Z,7.05
2023-02-17T01:29:48.129Z,7.08
2023-02-17T01:32:15.574Z,6.91
2023-02-17T01:34:43.185Z,7.15
2023-02-17T01:37:12.032Z,7.15
2023-02-17T01:39:40.178Z,6.71
2023-02-17T01:42:07.603Z,7.16
2023-02-17T01:44:35.062Z,6.79
2023-02-17T01:47:02.527Z,7.23
2023-02-17T01:49:33.895Z,7.25
2023-02-17T01:52:07.587Z,7.09
2023-02-17T01:54:41.199Z,7.18
2023-02-17T01:57:08.844Z,7.07
2023-02-17T01:59:37.584Z,7.38
2023-02-17T02:02:07.559Z,7.43
2023-02-17T02:04:38.860Z,7.43
2023-02-17T02:07:11.307Z,7.46
2023-02-17T02:09:43.882Z,7.52
2023-02-17T02:12:19.290Z,7.52
2023-02-17T02:14:47.043Z,7.53
2023-02-17T02:17:25.182Z,7.38
2023-02-17T02:20:16.031Z,7.55
2023-02-17T02:23:17.596Z,7.52
2023-02-17T02:26:11.776Z,7.55
2023-02-17T02:28:53.745Z,7.55
2023-02-17T02:31:30.731Z,7.57
2023-02-17T02:34:04.218Z,7.49
2023-02-17T02:36:35.778Z,7.54
2023-02-17T02:39:08.844Z,7.59
2023-02-17T02:41:38.843Z,7.57
2023-02-17T02:44:07.808Z,7.43
2023-02-17T02:46:35.518Z,7.57
2023-02-17T02:49:05.481Z,7.55
2023-02-17T02:51:46.740Z,7.55
2023-02-17T02:54:42.428Z,7.56
2023-02-17T02:57:21.454Z,7.57
2023-02-17T03:00:00.921Z,7.55
2023-02-17T03:02:35.900Z,7.43
2023-02-17T03:05:12.152Z,7.60
2023-02-17T03:07:43.815Z,7.61
2023-02-17T03:10:11.930Z,7.55
2023-02-17T03:12:40.147Z,7.61
2023-02-17T03:15:15.314Z,7.60
2023-02-17T03:17:42.745Z,7.61
2023-02-17T03:20:13.536Z,7.60
2023-02-17T03:22:44.617Z,7.61
2023-02-17T03:25:12.301Z,7.56
2023-02-17T03:27:39.723Z,7.55
2023-02-17T03:30:09.441Z,7.55
2023-02-17T03:32:37.514Z,7.45
2023-02-17T03:35:05.542Z,7.53
2023-02-17T03:37:34.361Z,7.36
2023-02-17T03:40:01.783Z,7.53
2023-02-17T03:42:29.429Z,7.51
2023-02-17T03:44:57.057Z,7.44
2023-02-17T03:47:24.492Z,7.44
2023-02-17T03:49:52.059Z,7.54
2023-02-17T03:52:19.844Z,7.56
2023-02-17T03:54:48.648Z,7.57
2023-02-17T03:57:16.114Z,7.58
2023-02-17T03:59:43.526Z,7.53
2023-02-17T04:02:11.081Z,7.32
2023-02-17T04:04:39.137Z,7.59
2023-02-17T04:07:06.790Z,7.54
2023-02-17T04:09:34.324Z,7.57
2023-02-17T04:12:03.226Z,7.34
2023-02-17T04:14:31.010Z,7.51
2023-02-17T04:16:58.421Z,7.54
2023-02-17T04:19:25.988Z,7.59
2023-02-17T04:21:53.601Z,7.59
2023-02-17T04:24:21.969Z,7.60
2023-02-17T04:26:49.425Z,7.62
2023-02-17T04:29:18.188Z,7.63
2023-02-17T04:31:45.694Z,7.39
2023-02-17T04:34:13.248Z,7.58
2023-02-17T04:36:41.165Z,7.52
2023-02-17T04:39:09.450Z,7.49
2023-02-17T04:41:36.890Z,7.35
2023-02-17T04:44:04.306Z,7.31
2023-02-17T04:46:33.065Z,7.46
2023-02-17T04:49:00.503Z,7.40
2023-02-17T04:51:28.072Z,7.37
2023-02-17T04:53:55.680Z,7.08
2023-02-17T04:56:23.214Z,6.94
2023-02-17T04:58:50.712Z,7.33
2023-02-17T05:01:18.141Z,7.31
2023-02-17T05:03:46.959Z,7.25
2023-02-17T05:06:14.406Z,7.29
2023-02-17T05:08:41.889Z,7.28
2023-02-17T05:11:09.354Z,7.17
2023-02-17T05:13:36.829Z,7.22
2023-02-17T05:16:04.836Z,7.31
2023-02-17T05:18:32.449Z,7.37
2023-02-17T05:21:01.240Z,7.33
2023-02-17T05:23:28.778Z,7.38
2023-02-17T05:25:56.267Z,7.38
2023-02-17T05:28:23.725Z,7.38
2023-02-17T05:30:51.345Z,7.36
2023-02-17T05:33:18.959Z,7.36
2023-02-17T05:35:46.413Z,7.33
2023-02-17T05:38:15.251Z,7.47
2023-02-17T05:40:42.738Z,7.46
2023-02-17T05:43:10.172Z,7.46
2023-02-17T05:45:37.801Z,7.27
2023-02-17T05:48:05.775Z,7.29
2023-02-17T05:50:33.387Z,7.27
2023-02-17T05:53:00.826Z,7.46
2023-02-17T05:55:29.765Z,7.38
2023-02-17T05:57:57.304Z,7.14
2023-02-17T06:00:25.302Z,7.37
2023-02-17T06:02:52.905Z,7.44
2023-02-17T06:05:20.619Z,7.42
2023-02-17T06:07:48.516Z,7.23
2023-02-17T06:10:16.289Z,7.21
2023-02-17T06:12:45.389Z,6.97
2023-02-17T06:15:12.996Z,7.13
2023-02-17T06:17:40.568Z,7.43
2023-02-17T06:20:09.484Z,7.45
2023-02-17T06:22:37.035Z,7.45
2023-02-17T06:25:04.807Z,7.37
2023-02-17T06:27:32.456Z,7.04
2023-02-17T06:30:01.308Z,7.46
2023-02-17T06:32:28.950Z,7.46
2023-02-17T06:34:56.362Z,7.48
2023-02-17T06:37:23.885Z,7.48
2023-02-17T06:39:51.336Z,7.47
2023-02-17T06:42:18.843Z,7.48
2023-02-17T06:44:46.480Z,7.08
2023-02-17T06:47:15.307Z,7.51
2023-02-17T06:49:42.771Z,7.52
2023-02-17T06:52:10.230Z,7.41
2023-02-17T06:54:37.742Z,7.25
2023-02-17T06:57:05.190Z,7.51
2023-02-17T06:59:32.809Z,7.22
2023-02-17T07:02:02.454Z,7.57
2023-02-17T07:04:39.634Z,7.36
2023-02-17T07:07:34.122Z,7.22
2023-02-17T07:10:00.596Z,7.24
2023-02-17T07:12:29.544Z,7.51
2023-02-17T07:14:56.987Z,7.71
2023-02-17T07:17:24.435Z,7.75
2023-02-17T07:19:53.219Z,7.80
2023-02-17T07:22:21.456Z,7.81
2023-02-17T07:24:48.872Z,7.85
2023-02-17T07:27:16.279Z,7.87
2023-02-17T07:29:43.697Z,7.92
2023-02-17T07:32:11.878Z,7.78
2023-02-17T07:34:47.406Z,7.50
2023-02-17T07:37:17.270Z,7.50
2023-02-17T07:39:46.122Z,7.50
2023-02-17T07:42:14.384Z,7.53
2023-02-17T07:44:45.194Z,7.49
2023-02-17T07:47:12.694Z,7.85
2023-02-17T07:49:40.192Z,8.03
2023-02-17T07:52:12.435Z,7.83
2023-02-17T07:54:49.773Z,7.69
2023-02-17T07:57:17.549Z,8.12
2023-02-17T07:59:46.715Z,8.19
2023-02-17T08:02:14.168Z,8.12
2023-02-17T08:04:41.758Z,8.29
2023-02-17T08:07:09.210Z,8.29
2023-02-17T08:09:54.482Z,8.25
2023-02-17T08:12:40.900Z,8.31
2023-02-17T08:15:11.003Z,8.32
2023-02-17T08:17:38.515Z,8.41
2023-02-17T08:20:09.110Z,8.42
2023-02-17T08:22:38.943Z,8.49
2023-02-17T08:25:06.938Z,8.56
2023-02-17T08:27:35.716Z,8.58
2023-02-17T08:30:03.470Z,8.39
2023-02-17T08:32:30.991Z,8.71
2023-02-17T08:34:59.192Z,8.66
2023-02-17T08:37:27.102Z,8.81
2023-02-17T08:39:54.587Z,8.92
2023-02-17T08:42:22.031Z,8.94
2023-02-17T08:44:50.871Z,8.73
2023-02-17T08:47:18.342Z,8.94
2023-02-17T08:49:45.889Z,9.00
2023-02-17T08:52:13.367Z,9.00
2023-02-17T08:54:40.797Z,9.04
2023-02-17T08:57:08.272Z,9.11
2023-02-17T08:59:35.717Z,9.16
2023-02-17T09:02:04.805Z,9.17
2023-02-17T09:04:36.376Z,9.21
2023-02-17T09:07:04.113Z,9.08
2023-02-17T09:09:32.519Z,9.35
2023-02-17T09:12:00.008Z,9.36
2023-02-17T09:14:27.857Z,9.47
2023-02-17T09:16:56.146Z,9.45
2023-02-17T09:19:25.689Z,9.47
2023-02-17T09:21:53.508Z,9.46
2023-02-17T09:24:20.958Z,9.52
2023-02-17T09:26:48.490Z,9.46
2023-02-17T09:29:15.988Z,9.44
2023-02-17T09:31:45.522Z,9.44
2023-02-17T09:34:13.086Z,9.53
2023-02-17T09:36:42.829Z,9.61
2023-02-17T09:39:13.434Z,9.63
2023-02-17T09:41:47.098Z,9.62
2023-02-17T09:44:21.456Z,9.65
2023-02-17T09:47:01.876Z,9.67
2023-02-17T09:49:36.465Z,9.62
2023-02-17T09:52:10.943Z,9.69
2023-02-17T09:54:44.927Z,9.77
2023-02-17T09:57:19.630Z,9.78
2023-02-17T09:59:51.576Z,9.83
2023-02-17T10:02:26.371Z,9.87
2023-02-17T10:04:57.544Z,9.98
2023-02-17T10:07:31.298Z,10.06
2023-02-17T10:10:06.827Z,10.13
2023-02-17T10:12:38.860Z,10.04
2023-02-17T10:15:13.448Z,10.01
2023-02-17T10:17:46.851Z,10.22
2023-02-17T10:20:19.272Z,10.32
2023-02-17T10:22:53.491Z,10.27
2023-02-17T10:25:33.069Z,10.12
2023-02-17T10:28:06.693Z,10.46
2023-02-17T10:30:40.699Z,10.48
2023-02-17T10:33:15.610Z,10.65
2023-02-17T10:35:54.107Z,10.75
2023-02-17T10:38:39.303Z,10.68
2023-02-17T10:41:10.583Z,10.57
2023-02-17T10:43:38.273Z,10.53
2023-02-17T10:46:09.256Z,10.52
2023-02-17T10:48:40.644Z,10.70
2023-02-17T10:51:08.888Z,10.90
2023-02-17T10:53:40.816Z,10.76
2023-02-17T10:56:14.242Z,11.03
2023-02-17T10:58:49.627Z,11.19
2023-02-17T11:01:18.089Z,11.05
2023-02-17T11:03:45.799Z,11.13
2023-02-17T11:06:19.779Z,11.17
2023-02-17T11:08:52.781Z,11.11
2023-02-17T11:11:22.885Z,11.12
2023-02-17T11:14:03.982Z,11.27
2023-02-17T11:16:35.646Z,11.18
2023-02-17T11:19:04.274Z,11.23
2023-02-17T11:21:33.112Z,11.18
2023-02-17T11:24:03.997Z,11.14
2023-02-17T11:26:33.480Z,11.15
2023-02-17T11:29:11.937Z,11.15
2023-02-17T11:31:39.510Z,11.10
2023-02-17T11:34:15.273Z,11.08
2023-02-17T11:36:45.570Z,11.19
2023-02-17T11:39:22.999Z,10.86
2023-02-17T11:41:51.076Z,11.19
2023-02-17T11:44:25.724Z,11.22
2023-02-17T11:47:04.735Z,11.10
2023-02-17T11:49:47.247Z,11.28
2023-02-17T11:52:30.966Z,11.32
2023-02-17T11:55:12.800Z,11.35
2023-02-17T11:57:45.476Z,11.42
2023-02-17T12:00:20.128Z,11.39
2023-02-17T12:03:10.842Z,11.53
2023-02-17T12:05:52.806Z,11.58
2023-02-17T12:08:31.082Z,11.42
2023-02-17T12:11:09.233Z,11.55
2023-02-17T12:13:56.325Z,11.63
2023-02-17T12:16:35.477Z,11.55
2023-02-17T12:19:07.251Z,11.65
2023-02-17T12:21:45.959Z,11.75
2023-02-17T12:24:29.093Z,11.80
2023-02-17T12:27:05.252Z,11.86
2023-02-17T12:29:48.605Z,11.94
2023-02-17T12:32:28.983Z,11.99
2023-02-17T12:35:01.256Z,11.97
2023-02-17T12:37:32.802Z,12.05
2023-02-17T12:40:04.054Z,12.03
2023-02-17T12:42:36.150Z,12.04
2023-02-17T12:45:06.486Z,12.12
2023-02-17T12:47:45.176Z,11.99
2023-02-17T12:50:20.239Z,11.93
2023-02-17T12:52:51.746Z,11.94
2023-02-17T12:55:22.842Z,11.84
2023-02-17T12:57:56.925Z,11.77
2023-02-17T13:00:28.794Z,11.80
2023-02-17T13:02:59.218Z,11.76
2023-02-17T13:05:29.742Z,11.68
2023-02-17T13:08:02.029Z,11.81
2023-02-17T13:10:32.807Z,11.89
2023-02-17T13:13:04.609Z,11.66
2023-02-17T13:15:35.903Z,11.99
2023-02-17T13:18:06.459Z,11.94
2023-02-17T13:20:57.251Z,12.05
2023-02-17T13:23:37.545Z,11.88
2023-02-17T13:26:24.722Z,12.18
2023-02-17T13:28:55.621Z,12.19
2023-02-17T13:31:25.238Z,12.29
2023-02-17T13:33:55.075Z,12.37
2023-02-17T13:36:35.632Z,12.40
2023-02-17T13:39:08.235Z,12.31
2023-02-17T13:41:46.387Z,12.28
2023-02-17T13:44:26.771Z,12.20
2023-02-17T13:46:57.419Z,12.26
2023-02-17T13:49:27.552Z,12.29
2023-02-17T13:51:55.232Z,12.31
2023-02-17T13:54:24.193Z,12.22
2023-02-17T13:56:52.533Z,12.24
2023-02-17T13:59:26.105Z,12.31
2023-02-17T14:01:55.133Z,12.29
2023-02-17T14:04:25.912Z,12.36
2023-02-17T14:06:56.134Z,12.48
2023-02-17T14:09:27.018Z,12.47
2023-02-17T14:11:56.709Z,12.35
2023-02-17T14:14:29.476Z,12.36
2023-02-17T14:17:00.756Z,12.25
2023-02-17T14:19:29.060Z,12.24
2023-02-17T14:22:03.917Z,12.07
2023-02-17T14:24:33.050Z,12.10
2023-02-17T14:27:02.212Z,11.99
2023-02-17T14:29:42.600Z,11.89
2023-02-17T14:32:29.298Z,11.83
2023-02-17T14:35:07.452Z,11.80
2023-02-17T14:37:36.750Z,12.03
2023-02-17T14:40:06.331Z,12.13
2023-02-17T14:42:33.942Z,12.15
2023-02-17T14:45:02.702Z,11.98
2023-02-17T14:47:30.109Z,12.04
2023-02-17T14:49:57.531Z,11.82
2023-02-17T14:52:26.379Z,11.51
2023-02-17T14:54:53.836Z,11.75
2023-02-17T14:57:27.082Z,11.58
2023-02-17T14:59:57.391Z,11.78
2023-02-17T15:02:26.149Z,11.76
2023-02-17T15:04:53.565Z,11.54
2023-02-17T15:07:21.030Z,11.49
2023-02-17T15:09:49.885Z,11.47
2023-02-17T15:12:20.300Z,11.33
2023-02-17T15:14:48.356Z,11.31
2023-02-17T15:17:16.671Z,11.31
2023-02-17T15:19:45.460Z,11.26
2023-02-17T15:22:13.502Z,11.11
2023-02-17T15:24:41.814Z,11.05
2023-02-17T15:27:14.786Z,11.20
2023-02-17T15:29:42.245Z,11.15
2023-02-17T15:32:17.918Z,11.50
2023-02-17T15:34:46.976Z,11.28
2023-02-17T15:37:14.495Z,11.20
2023-02-17T15:39:41.907Z,11.10
2023-02-17T15:42:13.957Z,11.00
2023-02-17T15:44:43.993Z,10.98
2023-02-17T15:47:15.484Z,10.94
2023-02-17T15:49:43.003Z,10.97
2023-02-17T15:52:13.470Z,10.94
2023-02-17T15:54:41.888Z,10.94
2023-02-17T15:57:17.942Z,10.85
2023-02-17T15:59:45.388Z,10.92
2023-02-17T16:02:20.842Z,10.89
2023-02-17T16:04:48.776Z,10.84
2023-02-17T16:07:17.777Z,10.82
2023-02-17T16:09:45.349Z,10.76
2023-02-17T16:12:18.471Z,10.51
2023-02-17T16:14:46.251Z,10.58
2023-02-17T16:17:15.809Z,10.53
2023-02-17T16:19:43.346Z,10.69
2023-02-17T16:22:11.000Z,10.63
2023-02-17T16:24:39.774Z,10.54
2023-02-17T16:27:08.232Z,10.49
2023-02-17T16:29:36.145Z,10.39
2023-02-17T16:32:03.826Z,10.39
2023-02-17T16:34:32.285Z,10.34
2023-02-17T16:37:03.000Z,10.26
2023-02-17T16:39:30.758Z,10.24
2023-02-17T16:41:59.501Z,10.18
2023-02-17T16:44:26.934Z,10.16
2023-02-17T16:46:56.088Z,10.12
2023-02-17T16:49:31.791Z,10.11
2023-02-17T16:51:59.400Z,10.08
2023-02-17T16:54:26.869Z,10.08
2023-02-17T16:56:54.788Z,10.07
2023-02-17T16:59:25.275Z,10.05
2023-02-17T17:01:53.975Z,9.99
2023-02-17T17:04:22.140Z,9.92
2023-02-17T17:06:51.756Z,10.08
2023-02-17T17:09:21.092Z,9.98
2023-02-17T17:11:48.622Z,9.82
2023-02-17T17:14:16.487Z,9.77
2023-02-17T17:16:51.591Z,9.62
2023-02-17T17:19:19.081Z,9.33
2023-02-17T17:21:46.566Z,9.60
2023-02-17T17:24:13.996Z,9.57
2023-02-17T17:26:45.188Z,9.28
2023-02-17T17:29:15.060Z,9.43
2023-02-17T17:31:46.954Z,8.98
2023-02-17T17:34:16.269Z,9.29
2023-02-17T17:36:45.625Z,8.96
2023-02-17T17:39:19.041Z,9.18
2023-02-17T17:41:47.104Z,8.74
2023-02-17T17:44:14.874Z,9.07
2023-02-17T17:46:44.528Z,9.00
2023-02-17T17:49:14.726Z,8.48
2023-02-17T17:51:45.035Z,8.87
2023-02-17T17:54:12.713Z,8.78
2023-02-17T17:56:42.844Z,8.48
2023-02-17T17:59:11.535Z,8.74
2023-02-17T18:01:39.170Z,8.53
2023-02-17T18:04:08.784Z,8.37
2023-02-17T18:06:40.567Z,8.47
2023-02-17T18:09:25.737Z,8.58
2023-02-17T18:12:00.100Z,8.45
2023-02-17T18:14:27.758Z,8.53
2023-02-17T18:16:59.061Z,8.47
2023-02-17T18:19:27.107Z,8.52
2023-02-17T18:22:00.691Z,8.34
2023-02-17T18:24:29.978Z,8.36
2023-02-17T18:26:57.760Z,8.36
2023-02-17T18:29:27.748Z,8.28
2023-02-17T18:31:55.540Z,8.43
2023-02-17T18:34:23.073Z,8.23
2023-02-17T18:36:50.622Z,8.14
2023-02-17T18:39:18.402Z,8.40
2023-02-17T18:41:47.346Z,8.09
2023-02-17T18:44:14.904Z,8.41
2023-02-17T18:46:42.667Z,8.20
2023-02-17T18:49:10.459Z,8.40
2023-02-17T18:51:38.203Z,8.38
2023-02-17T18:54:10.619Z,8.04
2023-02-17T18:56:41.188Z,8.10
2023-02-17T18:59:10.222Z,8.43
2023-02-17T19:01:39.364Z,8.08
2023-02-17T19:04:07.436Z,8.35
2023-02-17T19:06:35.173Z,8.33
2023-02-17T19:09:04.341Z,8.27
2023-02-17T19:11:33.004Z,8.26
2023-02-17T19:14:02.115Z,8.02
2023-02-17T19:16:33.130Z,8.02
2023-02-17T19:19:01.639Z,8.28
2023-02-17T19:21:29.362Z,8.28
2023-02-17T19:23:57.266Z,8.30
2023-02-17T19:26:26.507Z,8.28
2023-02-17T19:28:54.064Z,8.27
2023-02-17T19:31:22.328Z,8.14
2023-02-17T19:33:51.768Z,7.82
2023-02-17T19:36:21.331Z,7.77
2023-02-17T19:38:50.844Z,8.08
2023-02-17T19:41:19.865Z,7.71
2023-02-17T19:43:47.734Z,7.92
2023-02-17T19:46:18.101Z,7.71
2023-02-17T19:48:52.381Z,7.77
2023-02-17T19:51:21.196Z,7.89
2023-02-17T19:53:48.879Z,7.72
2023-02-17T19:56:19.112Z,7.84
2023-02-17T19:58:47.738Z,7.85
2023-02-17T20:01:17.912Z,7.83
2023-02-17T20:03:45.883Z,7.82
2023-02-17T20:06:17.822Z,7.74
2023-02-17T20:08:45.798Z,7.74
2023-02-17T20:11:14.740Z,7.77
2023-02-17T20:13:46.832Z,7.76
2023-02-17T20:16:16.948Z,7.76
2023-02-17T20:18:46.511Z,7.42
2023-02-17T20:21:17.370Z,7.74
2023-02-17T20:23:45.278Z,7.70
2023-02-17T20:26:14.942Z,7.28
2023-02-17T20:28:45.460Z,7.71
2023-02-17T20:31:13.380Z,7.70
2023-02-17T20:33:41.264Z,7.57
2023-02-17T20:36:10.111Z,7.71
2023-02-17T20:38:39.535Z,7.74
2023-02-17T20:41:08.510Z,7.51
2023-02-17T20:43:37.647Z,7.46
2023-02-17T20:46:05.648Z,7.70
2023-02-17T20:48:36.152Z,7.65
2023-02-17T20:51:05.630Z,7.71
2023-02-17T20:53:33.581Z,7.51
2023-02-17T20:56:02.664Z,7.46
2023-02-17T20:58:30.314Z,7.54
2023-02-17T21:00:57.812Z,7.64
2023-02-17T21:03:25.430Z,7.51
2023-02-17T21:05:53.093Z,7.71
2023-02-17T21:08:20.859Z,7.61
2023-02-17T21:10:48.896Z,7.30
2023-02-17T21:13:17.833Z,7.51
2023-02-17T21:15:48.775Z,7.68
2023-02-17T21:18:16.714Z,7.64
2023-02-17T21:20:44.312Z,7.48
2023-02-17T21:23:12.004Z,7.61
2023-02-17T21:25:39.589Z,7.60
2023-02-17T21:28:07.198Z,7.22
2023-02-17T21:30:38.099Z,7.60
2023-02-17T21:33:06.310Z,7.49
2023-02-17T21:35:33.962Z,7.60
2023-02-17T21:38:02.591Z,7.59
2023-02-17T21:40:30.375Z,7.27
2023-02-17T21:43:15.395Z,7.45
2023-02-17T21:45:45.583Z,7.34
2023-02-17T21:48:13.459Z,7.44
2023-02-17T21:50:41.210Z,7.39
2023-02-17T21:53:11.955Z,7.56
2023-02-17T21:55:48.389Z,7.57
2023-02-17T21:58:15.892Z,7.57
2023-02-17T22:00:44.914Z,7.36
2023-02-17T22:03:15.595Z,7.46
2023-02-17T22:05:43.137Z,7.57
2023-02-17T22:08:10.667Z,7.40
2023-02-17T22:10:38.440Z,7.47
2023-02-17T22:13:07.044Z,7.55
2023-02-17T22:15:35.596Z,7.45
2023-02-17T22:18:05.275Z,7.53
2023-02-17T22:20:33.005Z,7.48
2023-02-17T22:23:01.767Z,7.47
2023-02-17T22:25:31.132Z,7.35
2023-02-17T22:27:59.001Z,7.56
2023-02-17T22:30:27.762Z,7.15
2023-02-17T22:32:55.707Z,7.40
2023-02-17T22:35:25.132Z,7.56
2023-02-17T22:37:52.832Z,7.12
2023-02-17T22:40:23.256Z,7.32
2023-02-17T22:42:50.846Z,7.19
2023-02-17T22:45:18.896Z,7.25
2023-02-17T22:47:46.434Z,7.29
2023-02-17T22:50:13.911Z,7.53
2023-02-17T22:52:42.714Z,7.46
2023-02-17T22:55:10.261Z,7.50
2023-02-17T22:57:37.717Z,7.54
2023-02-17T23:00:06.401Z,7.50
2023-02-17T23:02:35.984Z,7.50
2023-02-17T23:05:03.946Z,7.50
2023-02-17T23:07:31.455Z,7.46
2023-02-17T23:10:00.248Z,7.49
2023-02-17T23:12:27.748Z,7.49
2023-02-17T23:14:55.253Z,7.48
2023-02-17T23:17:22.987Z,7.50
2023-02-17T23:19:50.699Z,7.43
2023-02-17T23:22:19.015Z,7.50
2023-02-17T23:24:48.205Z,7.49
2023-02-17T23:27:17.207Z,7.41
2023-02-17T23:29:44.676Z,7.47
2023-02-17T23:32:12.226Z,7.49
2023-02-17T23:34:40.218Z,7.49
2023-02-17T23:37:07.679Z,7.52
2023-02-17T23:39:37.648Z,7.48
2023-02-17T23:42:05.272Z,7.46
2023-02-17T23:44:34.064Z,7.46
2023-02-17T23:47:01.505Z,7.29
2023-02-17T23:49:28.965Z,7.22
2023-02-17T23:51:56.441Z,7.57
2023-02-17T23:54:24.896Z,7.54
2023-02-17T23:56:52.368Z,7.57
2023-02-17T23:59:19.873Z,7.51
